sensor_id;sensor_type;location;lat;lon;timestamp;P1;durP1;ratioP1;P2;durP2;ratioP2
65936;SDS011;52707;52.086;5.418;2023-07-13T00:00:36;17.10;;;3.05;;
65936;SDS011;52707;52.086;5.418;2023-07-13T00:03:03;10.55;;;2.05;;
65936;SDS011;52707;52.086;5.418;2023-07-13T00:05:31;13.73;;;2.40;;
65936;SDS011;52707;52.086;5.418;2023-07-13T00:07:58;9.52;;;2.63;;
65936;SDS011;52707;52.086;5.418;2023-07-13T00:10:24;15.93;;;1.80;;
65936;SDS011;52707;52.086;5.418;2023-07-13T00:12:52;13.93;;;2.13;;
65936;SDS011;52707;52.086;5.418;2023-07-13T00:15:25;14.77;;;2.85;;
65936;SDS011;52707;52.086;5.418;2023-07-13T00:17:52;13.18;;;2.40;;
65936;SDS011;52707;52.086;5.418;2023-07-13T00:20:19;11.90;;;2.30;;
65936;SDS011;52707;52.086;5.418;2023-07-13T00:22:48;10.32;;;2.13;;
65936;SDS011;52707;52.086;5.418;2023-07-13T00:25:15;10.93;;;1.77;;
65936;SDS011;52707;52.086;5.418;2023-07-13T00:27:43;11.18;;;2.50;;
65936;SDS011;52707;52.086;5.418;2023-07-13T00:30:10;17.65;;;2.58;;
65936;SDS011;52707;52.086;5.418;2023-07-13T00:32:37;11.88;;;2.42;;
65936;SDS011;52707;52.086;5.418;2023-07-13T00:35:04;10.38;;;1.85;;
65936;SDS011;52707;52.086;5.418;2023-07-13T00:37:31;10.75;;;2.50;;
65936;SDS011;52707;52.086;5.418;2023-07-13T00:39:58;13.48;;;2.60;;
65936;SDS011;52707;52.086;5.418;2023-07-13T00:42:26;7.32;;;1.63;;
65936;SDS011;52707;52.086;5.418;2023-07-13T00:47:37;15.60;;;2.50;;
65936;SDS011;52707;52.086;5.418;2023-07-13T00:50:04;17.25;;;2.42;;
65936;SDS011;52707;52.086;5.418;2023-07-13T00:52:33;15.20;;;2.42;;
65936;SDS011;52707;52.086;5.418;2023-07-13T00:55:01;14.40;;;2.22;;
65936;SDS011;52707;52.086;5.418;2023-07-13T00:57:28;10.18;;;2.53;;
65936;SDS011;52707;52.086;5.418;2023-07-13T00:59:55;10.13;;;2.13;;
65936;SDS011;52707;52.086;5.418;2023-07-13T01:02:23;12.75;;;2.42;;
65936;SDS011;52707;52.086;5.418;2023-07-13T01:04:50;10.75;;;2.17;;
65936;SDS011;52707;52.086;5.418;2023-07-13T01:07:17;9.48;;;2.05;;
65936;SDS011;52707;52.086;5.418;2023-07-13T01:09:45;13.10;;;2.28;;
65936;SDS011;52707;52.086;5.418;2023-07-13T01:12:11;14.10;;;2.38;;
65936;SDS011;52707;52.086;5.418;2023-07-13T01:14:37;13.88;;;2.53;;
65936;SDS011;52707;52.086;5.418;2023-07-13T01:17:05;12.35;;;2.10;;
65936;SDS011;52707;52.086;5.418;2023-07-13T01:19:33;11.63;;;2.35;;
65936;SDS011;52707;52.086;5.418;2023-07-13T01:22:10;14.57;;;2.42;;
65936;SDS011;52707;52.086;5.418;2023-07-13T01:24:38;12.02;;;2.40;;
65936;SDS011;52707;52.086;5.418;2023-07-13T01:27:06;11.63;;;2.60;;
65936;SDS011;52707;52.086;5.418;2023-07-13T01:29:33;11.40;;;2.45;;
65936;SDS011;52707;52.086;5.418;2023-07-13T01:32:00;10.52;;;2.58;;
65936;SDS011;52707;52.086;5.418;2023-07-13T01:34:27;10.02;;;2.30;;
65936;SDS011;52707;52.086;5.418;2023-07-13T01:36:53;15.45;;;2.28;;
65936;SDS011;52707;52.086;5.418;2023-07-13T01:39:20;18.70;;;3.28;;
65936;SDS011;52707;52.086;5.418;2023-07-13T01:41:47;12.80;;;2.38;;
65936;SDS011;52707;52.086;5.418;2023-07-13T01:44:14;9.85;;;2.40;;
65936;SDS011;52707;52.086;5.418;2023-07-13T01:46:40;12.80;;;2.67;;
65936;SDS011;52707;52.086;5.418;2023-07-13T01:49:07;10.15;;;2.15;;
65936;SDS011;52707;52.086;5.418;2023-07-13T01:51:33;13.75;;;2.80;;
65936;SDS011;52707;52.086;5.418;2023-07-13T01:54:00;6.40;;;2.30;;
65936;SDS011;52707;52.086;5.418;2023-07-13T01:56:26;10.57;;;2.40;;
65936;SDS011;52707;52.086;5.418;2023-07-13T01:58:53;10.68;;;2.10;;
65936;SDS011;52707;52.086;5.418;2023-07-13T02:01:19;10.70;;;2.42;;
65936;SDS011;52707;52.086;5.418;2023-07-13T02:03:45;15.68;;;2.38;;
65936;SDS011;52707;52.086;5.418;2023-07-13T02:06:12;15.10;;;2.25;;
65936;SDS011;52707;52.086;5.418;2023-07-13T02:08:40;12.57;;;2.85;;
65936;SDS011;52707;52.086;5.418;2023-07-13T02:11:06;13.70;;;2.70;;
65936;SDS011;52707;52.086;5.418;2023-07-13T02:13:33;9.82;;;2.38;;
65936;SDS011;52707;52.086;5.418;2023-07-13T02:15:59;12.45;;;2.63;;
65936;SDS011;52707;52.086;5.418;2023-07-13T02:18:26;8.50;;;2.50;;
65936;SDS011;52707;52.086;5.418;2023-07-13T02:20:54;12.60;;;2.83;;
65936;SDS011;52707;52.086;5.418;2023-07-13T02:23:20;6.72;;;2.15;;
65936;SDS011;52707;52.086;5.418;2023-07-13T02:25:55;13.75;;;2.97;;
65936;SDS011;52707;52.086;5.418;2023-07-13T02:28:22;11.98;;;3.42;;
65936;SDS011;52707;52.086;5.418;2023-07-13T02:30:48;12.55;;;2.42;;
65936;SDS011;52707;52.086;5.418;2023-07-13T02:33:15;18.60;;;2.95;;
65936;SDS011;52707;52.086;5.418;2023-07-13T02:35:41;16.80;;;2.70;;
65936;SDS011;52707;52.086;5.418;2023-07-13T02:38:08;12.93;;;3.05;;
65936;SDS011;52707;52.086;5.418;2023-07-13T02:40:34;9.10;;;2.75;;
65936;SDS011;52707;52.086;5.418;2023-07-13T02:43:02;14.30;;;2.67;;
65936;SDS011;52707;52.086;5.418;2023-07-13T02:45:28;16.38;;;3.47;;
65936;SDS011;52707;52.086;5.418;2023-07-13T02:47:55;13.23;;;2.53;;
65936;SDS011;52707;52.086;5.418;2023-07-13T02:50:21;10.55;;;2.60;;
65936;SDS011;52707;52.086;5.418;2023-07-13T02:52:48;9.07;;;2.88;;
65936;SDS011;52707;52.086;5.418;2023-07-13T02:55:14;12.55;;;3.10;;
65936;SDS011;52707;52.086;5.418;2023-07-13T02:57:40;10.98;;;2.83;;
65936;SDS011;52707;52.086;5.418;2023-07-13T03:00:07;21.88;;;3.22;;
65936;SDS011;52707;52.086;5.418;2023-07-13T03:02:34;16.60;;;3.97;;
65936;SDS011;52707;52.086;5.418;2023-07-13T03:05:01;15.63;;;3.08;;
65936;SDS011;52707;52.086;5.418;2023-07-13T03:07:27;12.48;;;3.10;;
65936;SDS011;52707;52.086;5.418;2023-07-13T03:09:55;14.68;;;3.53;;
65936;SDS011;52707;52.086;5.418;2023-07-13T03:12:22;13.20;;;3.42;;
65936;SDS011;52707;52.086;5.418;2023-07-13T03:14:48;16.08;;;3.38;;
65936;SDS011;52707;52.086;5.418;2023-07-13T03:17:15;12.68;;;3.10;;
65936;SDS011;52707;52.086;5.418;2023-07-13T03:19:41;14.63;;;3.10;;
65936;SDS011;52707;52.086;5.418;2023-07-13T03:22:08;18.02;;;4.13;;
65936;SDS011;52707;52.086;5.418;2023-07-13T03:24:35;13.38;;;2.92;;
65936;SDS011;52707;52.086;5.418;2023-07-13T03:29:31;24.30;;;3.72;;
65936;SDS011;52707;52.086;5.418;2023-07-13T03:31:58;19.98;;;3.90;;
65936;SDS011;52707;52.086;5.418;2023-07-13T03:34:24;14.40;;;3.47;;
65936;SDS011;52707;52.086;5.418;2023-07-13T03:36:53;14.38;;;3.50;;
65936;SDS011;52707;52.086;5.418;2023-07-13T03:39:20;16.23;;;3.72;;
65936;SDS011;52707;52.086;5.418;2023-07-13T03:41:46;17.95;;;4.07;;
65936;SDS011;52707;52.086;5.418;2023-07-13T03:44:13;27.42;;;3.88;;
65936;SDS011;52707;52.086;5.418;2023-07-13T03:46:39;23.42;;;4.68;;
65936;SDS011;52707;52.086;5.418;2023-07-13T03:49:06;16.88;;;3.92;;
65936;SDS011;52707;52.086;5.418;2023-07-13T03:51:32;19.77;;;4.43;;
65936;SDS011;52707;52.086;5.418;2023-07-13T03:53:59;15.88;;;4.47;;
65936;SDS011;52707;52.086;5.418;2023-07-13T03:56:25;17.50;;;4.38;;
65936;SDS011;52707;52.086;5.418;2023-07-13T03:58:53;16.10;;;3.90;;
65936;SDS011;52707;52.086;5.418;2023-07-13T04:01:20;24.60;;;4.30;;
65936;SDS011;52707;52.086;5.418;2023-07-13T04:03:47;21.02;;;4.30;;
65936;SDS011;52707;52.086;5.418;2023-07-13T04:06:19;13.68;;;3.45;;
65936;SDS011;52707;52.086;5.418;2023-07-13T04:08:51;17.42;;;4.05;;
65936;SDS011;52707;52.086;5.418;2023-07-13T04:11:18;16.23;;;3.75;;
65936;SDS011;52707;52.086;5.418;2023-07-13T04:13:46;16.40;;;4.47;;
65936;SDS011;52707;52.086;5.418;2023-07-13T04:16:13;18.00;;;4.60;;
65936;SDS011;52707;52.086;5.418;2023-07-13T04:18:40;29.20;;;4.25;;
65936;SDS011;52707;52.086;5.418;2023-07-13T04:21:07;15.95;;;4.10;;
65936;SDS011;52707;52.086;5.418;2023-07-13T04:23:35;17.70;;;3.72;;
65936;SDS011;52707;52.086;5.418;2023-07-13T04:26:02;19.60;;;3.95;;
65936;SDS011;52707;52.086;5.418;2023-07-13T04:28:29;24.02;;;4.75;;
65936;SDS011;52707;52.086;5.418;2023-07-13T04:30:56;19.95;;;4.35;;
65936;SDS011;52707;52.086;5.418;2023-07-13T04:33:23;18.67;;;4.80;;
65936;SDS011;52707;52.086;5.418;2023-07-13T04:35:50;19.65;;;4.55;;
65936;SDS011;52707;52.086;5.418;2023-07-13T04:38:20;15.82;;;3.95;;
65936;SDS011;52707;52.086;5.418;2023-07-13T04:40:47;23.00;;;4.97;;
65936;SDS011;52707;52.086;5.418;2023-07-13T04:43:14;17.20;;;4.47;;
65936;SDS011;52707;52.086;5.418;2023-07-13T04:45:40;18.50;;;4.63;;
65936;SDS011;52707;52.086;5.418;2023-07-13T04:48:07;25.58;;;5.28;;
65936;SDS011;52707;52.086;5.418;2023-07-13T04:50:37;29.27;;;5.50;;
65936;SDS011;52707;52.086;5.418;2023-07-13T04:53:03;21.80;;;5.00;;
65936;SDS011;52707;52.086;5.418;2023-07-13T04:55:31;18.67;;;4.55;;
65936;SDS011;52707;52.086;5.418;2023-07-13T04:57:57;19.55;;;5.07;;
65936;SDS011;52707;52.086;5.418;2023-07-13T05:00:28;28.25;;;4.80;;
65936;SDS011;52707;52.086;5.418;2023-07-13T05:02:55;17.63;;;4.97;;
65936;SDS011;52707;52.086;5.418;2023-07-13T05:05:24;28.15;;;5.68;;
65936;SDS011;52707;52.086;5.418;2023-07-13T05:07:51;24.05;;;5.43;;
65936;SDS011;52707;52.086;5.418;2023-07-13T05:10:18;20.35;;;5.00;;
65936;SDS011;52707;52.086;5.418;2023-07-13T05:12:44;24.15;;;4.97;;
65936;SDS011;52707;52.086;5.418;2023-07-13T05:15:11;24.05;;;5.85;;
65936;SDS011;52707;52.086;5.418;2023-07-13T05:17:38;27.52;;;6.85;;
65936;SDS011;52707;52.086;5.418;2023-07-13T05:20:07;26.88;;;6.00;;
65936;SDS011;52707;52.086;5.418;2023-07-13T05:22:34;27.75;;;5.70;;
65936;SDS011;52707;52.086;5.418;2023-07-13T05:25:03;29.45;;;6.40;;
65936;SDS011;52707;52.086;5.418;2023-07-13T05:27:29;23.83;;;5.70;;
65936;SDS011;52707;52.086;5.418;2023-07-13T05:29:56;31.15;;;6.03;;
65936;SDS011;52707;52.086;5.418;2023-07-13T05:32:22;20.08;;;6.50;;
65936;SDS011;52707;52.086;5.418;2023-07-13T05:34:49;29.25;;;6.15;;
65936;SDS011;52707;52.086;5.418;2023-07-13T05:37:15;31.05;;;6.50;;
65936;SDS011;52707;52.086;5.418;2023-07-13T05:39:42;29.35;;;7.25;;
65936;SDS011;52707;52.086;5.418;2023-07-13T05:42:08;26.17;;;6.70;;
65936;SDS011;52707;52.086;5.418;2023-07-13T05:44:37;34.53;;;7.20;;
65936;SDS011;52707;52.086;5.418;2023-07-13T05:47:04;24.73;;;6.93;;
65936;SDS011;52707;52.086;5.418;2023-07-13T05:49:32;27.67;;;7.57;;
65936;SDS011;52707;52.086;5.418;2023-07-13T05:51:58;26.80;;;7.35;;
65936;SDS011;52707;52.086;5.418;2023-07-13T05:54:25;30.15;;;7.40;;
65936;SDS011;52707;52.086;5.418;2023-07-13T05:56:51;31.98;;;7.30;;
65936;SDS011;52707;52.086;5.418;2023-07-13T05:59:17;41.10;;;7.57;;
65936;SDS011;52707;52.086;5.418;2023-07-13T06:01:44;39.28;;;7.88;;
65936;SDS011;52707;52.086;5.418;2023-07-13T06:04:11;30.40;;;8.05;;
65936;SDS011;52707;52.086;5.418;2023-07-13T06:06:37;27.02;;;7.97;;
65936;SDS011;52707;52.086;5.418;2023-07-13T06:09:03;32.28;;;7.97;;
65936;SDS011;52707;52.086;5.418;2023-07-13T06:11:30;32.25;;;8.50;;
65936;SDS011;52707;52.086;5.418;2023-07-13T06:13:56;26.45;;;7.10;;
65936;SDS011;52707;52.086;5.418;2023-07-13T06:16:23;35.80;;;9.90;;
65936;SDS011;52707;52.086;5.418;2023-07-13T06:18:49;36.92;;;9.18;;
65936;SDS011;52707;52.086;5.418;2023-07-13T06:21:17;33.30;;;9.35;;
65936;SDS011;52707;52.086;5.418;2023-07-13T06:23:44;27.38;;;9.02;;
65936;SDS011;52707;52.086;5.418;2023-07-13T06:26:11;28.98;;;8.52;;
65936;SDS011;52707;52.086;5.418;2023-07-13T06:28:37;28.77;;;8.55;;
65936;SDS011;52707;52.086;5.418;2023-07-13T06:31:05;28.63;;;8.75;;
65936;SDS011;52707;52.086;5.418;2023-07-13T06:33:31;40.92;;;9.57;;
65936;SDS011;52707;52.086;5.418;2023-07-13T06:35:58;31.90;;;8.60;;
65936;SDS011;52707;52.086;5.418;2023-07-13T06:38:24;32.53;;;9.40;;
65936;SDS011;52707;52.086;5.418;2023-07-13T06:40:51;35.38;;;10.68;;
65936;SDS011;52707;52.086;5.418;2023-07-13T06:43:17;36.15;;;10.55;;
65936;SDS011;52707;52.086;5.418;2023-07-13T06:45:45;34.75;;;10.43;;
65936;SDS011;52707;52.086;5.418;2023-07-13T06:48:16;39.58;;;10.23;;
65936;SDS011;52707;52.086;5.418;2023-07-13T06:50:43;26.42;;;9.45;;
65936;SDS011;52707;52.086;5.418;2023-07-13T06:53:10;31.75;;;9.65;;
65936;SDS011;52707;52.086;5.418;2023-07-13T06:55:37;34.53;;;9.57;;
65936;SDS011;52707;52.086;5.418;2023-07-13T06:58:04;28.52;;;9.73;;
65936;SDS011;52707;52.086;5.418;2023-07-13T07:00:30;41.95;;;10.27;;
65936;SDS011;52707;52.086;5.418;2023-07-13T07:02:57;32.63;;;10.07;;
65936;SDS011;52707;52.086;5.418;2023-07-13T07:05:24;30.50;;;10.80;;
65936;SDS011;52707;52.086;5.418;2023-07-13T07:07:51;29.77;;;9.75;;
65936;SDS011;52707;52.086;5.418;2023-07-13T07:10:18;25.45;;;9.68;;
65936;SDS011;52707;52.086;5.418;2023-07-13T07:12:45;33.38;;;9.50;;
65936;SDS011;52707;52.086;5.418;2023-07-13T07:15:11;31.00;;;10.23;;
65936;SDS011;52707;52.086;5.418;2023-07-13T07:17:38;39.38;;;9.93;;
65936;SDS011;52707;52.086;5.418;2023-07-13T07:20:05;34.17;;;10.32;;
65936;SDS011;52707;52.086;5.418;2023-07-13T07:22:32;30.92;;;10.00;;
65936;SDS011;52707;52.086;5.418;2023-07-13T07:24:58;33.90;;;10.38;;
65936;SDS011;52707;52.086;5.418;2023-07-13T07:27:25;38.40;;;10.73;;
65936;SDS011;52707;52.086;5.418;2023-07-13T07:29:56;32.83;;;10.93;;
65936;SDS011;52707;52.086;5.418;2023-07-13T07:32:28;45.17;;;10.75;;
65936;SDS011;52707;52.086;5.418;2023-07-13T07:35:14;27.88;;;9.35;;
65936;SDS011;52707;52.086;5.418;2023-07-13T07:37:41;28.70;;;8.45;;
65936;SDS011;52707;52.086;5.418;2023-07-13T07:40:10;23.90;;;8.18;;
65936;SDS011;52707;52.086;5.418;2023-07-13T07:42:40;33.25;;;9.00;;
65936;SDS011;52707;52.086;5.418;2023-07-13T07:45:06;27.88;;;8.50;;
65936;SDS011;52707;52.086;5.418;2023-07-13T07:47:33;35.58;;;9.35;;
65936;SDS011;52707;52.086;5.418;2023-07-13T07:49:59;21.58;;;8.45;;
65936;SDS011;52707;52.086;5.418;2023-07-13T07:52:26;30.50;;;9.32;;
65936;SDS011;52707;52.086;5.418;2023-07-13T07:54:52;21.45;;;7.88;;
65936;SDS011;52707;52.086;5.418;2023-07-13T07:57:22;24.23;;;8.57;;
65936;SDS011;52707;52.086;5.418;2023-07-13T07:59:51;28.83;;;9.63;;
65936;SDS011;52707;52.086;5.418;2023-07-13T08:02:20;29.20;;;8.52;;
65936;SDS011;52707;52.086;5.418;2023-07-13T08:04:49;23.70;;;8.05;;
65936;SDS011;52707;52.086;5.418;2023-07-13T08:07:19;27.27;;;8.05;;
65936;SDS011;52707;52.086;5.418;2023-07-13T08:09:45;28.42;;;8.38;;
65936;SDS011;52707;52.086;5.418;2023-07-13T08:12:13;24.45;;;8.77;;
65936;SDS011;52707;52.086;5.418;2023-07-13T08:14:42;25.83;;;8.70;;
65936;SDS011;52707;52.086;5.418;2023-07-13T08:17:18;28.38;;;8.57;;
65936;SDS011;52707;52.086;5.418;2023-07-13T08:19:44;22.88;;;7.50;;
65936;SDS011;52707;52.086;5.418;2023-07-13T08:22:11;21.10;;;6.78;;
65936;SDS011;52707;52.086;5.418;2023-07-13T08:24:38;20.98;;;6.45;;
65936;SDS011;52707;52.086;5.418;2023-07-13T08:27:04;20.15;;;6.40;;
65936;SDS011;52707;52.086;5.418;2023-07-13T08:29:31;24.90;;;7.07;;
65936;SDS011;52707;52.086;5.418;2023-07-13T08:32:00;26.80;;;7.13;;
65936;SDS011;52707;52.086;5.418;2023-07-13T08:34:26;20.63;;;6.07;;
65936;SDS011;52707;52.086;5.418;2023-07-13T08:36:53;14.13;;;5.00;;
65936;SDS011;52707;52.086;5.418;2023-07-13T08:39:19;25.40;;;5.10;;
65936;SDS011;52707;52.086;5.418;2023-07-13T08:41:46;8.15;;;2.20;;
65936;SDS011;52707;52.086;5.418;2023-07-13T08:47:03;8.15;;;2.38;;
65936;SDS011;52707;52.086;5.418;2023-07-13T08:49:30;12.63;;;2.40;;
65936;SDS011;52707;52.086;5.418;2023-07-13T08:52:02;10.25;;;2.45;;
65936;SDS011;52707;52.086;5.418;2023-07-13T08:57:00;10.98;;;2.85;;
65936;SDS011;52707;52.086;5.418;2023-07-13T08:59:29;11.38;;;3.22;;
65936;SDS011;52707;52.086;5.418;2023-07-13T09:02:00;13.20;;;3.50;;
65936;SDS011;52707;52.086;5.418;2023-07-13T09:04:34;10.98;;;2.83;;
65936;SDS011;52707;52.086;5.418;2023-07-13T09:12:02;9.82;;;3.03;;
65936;SDS011;52707;52.086;5.418;2023-07-13T09:17:04;6.97;;;2.53;;
65936;SDS011;52707;52.086;5.418;2023-07-13T09:19:31;13.18;;;3.53;;
65936;SDS011;52707;52.086;5.418;2023-07-13T09:21:59;17.17;;;3.35;;
65936;SDS011;52707;52.086;5.418;2023-07-13T09:26:53;10.27;;;3.13;;
65936;SDS011;52707;52.086;5.418;2023-07-13T09:29:23;11.88;;;3.13;;
65936;SDS011;52707;52.086;5.418;2023-07-13T09:31:53;12.23;;;2.67;;
65936;SDS011;52707;52.086;5.418;2023-07-13T09:34:20;15.10;;;3.55;;
65936;SDS011;52707;52.086;5.418;2023-07-13T09:36:47;10.07;;;3.22;;
65936;SDS011;52707;52.086;5.418;2023-07-13T09:41:57;14.13;;;3.05;;
65936;SDS011;52707;52.086;5.418;2023-07-13T09:44:33;6.72;;;2.30;;
65936;SDS011;52707;52.086;5.418;2023-07-13T09:47:02;11.57;;;3.67;;
65936;SDS011;52707;52.086;5.418;2023-07-13T09:49:31;11.40;;;3.03;;
65936;SDS011;52707;52.086;5.418;2023-07-13T09:52:00;8.93;;;2.42;;
65936;SDS011;52707;52.086;5.418;2023-07-13T09:54:27;11.27;;;2.80;;
65936;SDS011;52707;52.086;5.418;2023-07-13T09:56:57;7.68;;;2.40;;
65936;SDS011;52707;52.086;5.418;2023-07-13T09:59:28;9.07;;;2.60;;
65936;SDS011;52707;52.086;5.418;2023-07-13T10:01:55;7.93;;;2.10;;
65936;SDS011;52707;52.086;5.418;2023-07-13T10:04:26;7.43;;;2.38;;
65936;SDS011;52707;52.086;5.418;2023-07-13T10:07:04;8.82;;;2.70;;
65936;SDS011;52707;52.086;5.418;2023-07-13T10:09:54;8.30;;;2.50;;
65936;SDS011;52707;52.086;5.418;2023-07-13T10:12:21;10.50;;;2.28;;
65936;SDS011;52707;52.086;5.418;2023-07-13T10:14:56;8.52;;;2.60;;
65936;SDS011;52707;52.086;5.418;2023-07-13T10:17:42;10.40;;;2.40;;
65936;SDS011;52707;52.086;5.418;2023-07-13T10:20:10;6.45;;;2.80;;
65936;SDS011;52707;52.086;5.418;2023-07-13T10:22:46;8.90;;;2.65;;
65936;SDS011;52707;52.086;5.418;2023-07-13T10:25:17;7.43;;;2.90;;
65936;SDS011;52707;52.086;5.418;2023-07-13T10:27:44;6.00;;;2.47;;
65936;SDS011;52707;52.086;5.418;2023-07-13T10:30:12;6.45;;;2.25;;
65936;SDS011;52707;52.086;5.418;2023-07-13T10:32:42;9.95;;;2.63;;
65936;SDS011;52707;52.086;5.418;2023-07-13T10:35:12;9.43;;;3.08;;
65936;SDS011;52707;52.086;5.418;2023-07-13T10:37:49;9.95;;;3.15;;
65936;SDS011;52707;52.086;5.418;2023-07-13T10:40:22;6.63;;;2.78;;
65936;SDS011;52707;52.086;5.418;2023-07-13T10:42:51;9.02;;;2.95;;
65936;SDS011;52707;52.086;5.418;2023-07-13T10:45:22;5.78;;;2.28;;
65936;SDS011;52707;52.086;5.418;2023-07-13T10:47:50;9.68;;;2.63;;
65936;SDS011;52707;52.086;5.418;2023-07-13T10:50:20;6.60;;;2.30;;
65936;SDS011;52707;52.086;5.418;2023-07-13T10:52:48;3.85;;;1.60;;
65936;SDS011;52707;52.086;5.418;2023-07-13T10:58:14;5.78;;;1.73;;
65936;SDS011;52707;52.086;5.418;2023-07-13T11:03:20;3.70;;;1.50;;
65936;SDS011;52707;52.086;5.418;2023-07-13T11:05:48;5.63;;;1.77;;
65936;SDS011;52707;52.086;5.418;2023-07-13T11:10:48;8.05;;;1.92;;
65936;SDS011;52707;52.086;5.418;2023-07-13T11:16:00;5.05;;;2.30;;
65936;SDS011;52707;52.086;5.418;2023-07-13T11:18:26;8.50;;;2.45;;
65936;SDS011;52707;52.086;5.418;2023-07-13T11:20:53;8.40;;;2.17;;
65936;SDS011;52707;52.086;5.418;2023-07-13T11:23:41;9.10;;;2.20;;
65936;SDS011;52707;52.086;5.418;2023-07-13T11:28:53;14.00;;;3.20;;
65936;SDS011;52707;52.086;5.418;2023-07-13T11:31:20;11.90;;;2.83;;
65936;SDS011;52707;52.086;5.418;2023-07-13T11:33:50;11.73;;;3.25;;
65936;SDS011;52707;52.086;5.418;2023-07-13T11:36:18;7.95;;;2.47;;
65936;SDS011;52707;52.086;5.418;2023-07-13T11:39:01;7.55;;;2.53;;
65936;SDS011;52707;52.086;5.418;2023-07-13T11:41:35;11.13;;;2.40;;
65936;SDS011;52707;52.086;5.418;2023-07-13T11:44:05;8.48;;;2.50;;
65936;SDS011;52707;52.086;5.418;2023-07-13T11:46:32;7.97;;;2.40;;
65936;SDS011;52707;52.086;5.418;2023-07-13T11:48:59;14.80;;;2.97;;
65936;SDS011;52707;52.086;5.418;2023-07-13T11:51:29;12.98;;;4.28;;
65936;SDS011;52707;52.086;5.418;2023-07-13T11:54:01;16.48;;;4.72;;
65936;SDS011;52707;52.086;5.418;2023-07-13T11:56:28;13.98;;;4.18;;
65936;SDS011;52707;52.086;5.418;2023-07-13T11:58:56;12.75;;;4.18;;
65936;SDS011;52707;52.086;5.418;2023-07-13T12:01:24;11.00;;;3.03;;
65936;SDS011;52707;52.086;5.418;2023-07-13T12:03:52;8.15;;;2.75;;
65936;SDS011;52707;52.086;5.418;2023-07-13T12:06:29;8.90;;;2.60;;
65936;SDS011;52707;52.086;5.418;2023-07-13T12:08:57;8.73;;;3.45;;
65936;SDS011;52707;52.086;5.418;2023-07-13T12:11:24;7.93;;;3.17;;
65936;SDS011;52707;52.086;5.418;2023-07-13T12:13:50;8.68;;;3.13;;
65936;SDS011;52707;52.086;5.418;2023-07-13T12:16:21;10.27;;;3.45;;
65936;SDS011;52707;52.086;5.418;2023-07-13T12:18:49;10.90;;;4.00;;
65936;SDS011;52707;52.086;5.418;2023-07-13T12:21:18;14.07;;;4.35;;
65936;SDS011;52707;52.086;5.418;2023-07-13T12:23:47;6.88;;;3.30;;
65936;SDS011;52707;52.086;5.418;2023-07-13T12:26:14;14.48;;;3.65;;
65936;SDS011;52707;52.086;5.418;2023-07-13T12:28:48;8.10;;;3.08;;
65936;SDS011;52707;52.086;5.418;2023-07-13T12:31:35;7.95;;;2.65;;
65936;SDS011;52707;52.086;5.418;2023-07-13T12:34:05;5.53;;;2.47;;
65936;SDS011;52707;52.086;5.418;2023-07-13T12:36:33;16.02;;;3.60;;
65936;SDS011;52707;52.086;5.418;2023-07-13T12:39:00;10.70;;;3.15;;
65936;SDS011;52707;52.086;5.418;2023-07-13T12:41:30;5.40;;;2.80;;
65936;SDS011;52707;52.086;5.418;2023-07-13T12:43:57;9.65;;;3.10;;
65936;SDS011;52707;52.086;5.418;2023-07-13T12:46:25;7.72;;;2.78;;
65936;SDS011;52707;52.086;5.418;2023-07-13T12:51:33;5.78;;;2.92;;
65936;SDS011;52707;52.086;5.418;2023-07-13T12:54:11;6.47;;;2.40;;
65936;SDS011;52707;52.086;5.418;2023-07-13T12:56:39;5.97;;;2.38;;
65936;SDS011;52707;52.086;5.418;2023-07-13T12:59:05;8.43;;;2.60;;
65936;SDS011;52707;52.086;5.418;2023-07-13T13:01:33;6.25;;;2.83;;
65936;SDS011;52707;52.086;5.418;2023-07-13T13:04:01;4.70;;;2.60;;
65936;SDS011;52707;52.086;5.418;2023-07-13T13:06:30;7.10;;;2.50;;
65936;SDS011;52707;52.086;5.418;2023-07-13T13:08:57;6.40;;;2.22;;
65936;SDS011;52707;52.086;5.418;2023-07-13T13:13:53;4.13;;;1.88;;
65936;SDS011;52707;52.086;5.418;2023-07-13T13:16:22;4.50;;;2.08;;
65936;SDS011;52707;52.086;5.418;2023-07-13T13:18:49;3.78;;;1.90;;
65936;SDS011;52707;52.086;5.418;2023-07-13T13:21:17;6.47;;;2.38;;
65936;SDS011;52707;52.086;5.418;2023-07-13T13:23:44;6.60;;;2.20;;
65936;SDS011;52707;52.086;5.418;2023-07-13T13:26:15;8.15;;;1.80;;
65936;SDS011;52707;52.086;5.418;2023-07-13T13:28:42;7.75;;;1.83;;
65936;SDS011;52707;52.086;5.418;2023-07-13T13:31:10;4.20;;;2.08;;
65936;SDS011;52707;52.086;5.418;2023-07-13T13:33:39;4.35;;;2.15;;
65936;SDS011;52707;52.086;5.418;2023-07-13T13:38:36;5.60;;;2.60;;
65936;SDS011;52707;52.086;5.418;2023-07-13T13:41:03;9.77;;;2.30;;
65936;SDS011;52707;52.086;5.418;2023-07-13T13:43:29;6.57;;;1.83;;
65936;SDS011;52707;52.086;5.418;2023-07-13T13:45:56;5.32;;;2.00;;
65936;SDS011;52707;52.086;5.418;2023-07-13T13:48:29;6.40;;;2.17;;
65936;SDS011;52707;52.086;5.418;2023-07-13T13:50:58;4.22;;;1.85;;
65936;SDS011;52707;52.086;5.418;2023-07-13T13:53:25;4.60;;;2.00;;
65936;SDS011;52707;52.086;5.418;2023-07-13T13:55:51;5.38;;;2.00;;
65936;SDS011;52707;52.086;5.418;2023-07-13T13:58:19;7.32;;;2.00;;
65936;SDS011;52707;52.086;5.418;2023-07-13T14:00:46;5.82;;;2.25;;
65936;SDS011;52707;52.086;5.418;2023-07-13T14:03:20;6.30;;;2.25;;
65936;SDS011;52707;52.086;5.418;2023-07-13T14:05:47;5.13;;;2.15;;
65936;SDS011;52707;52.086;5.418;2023-07-13T14:08:18;4.57;;;1.83;;
65936;SDS011;52707;52.086;5.418;2023-07-13T14:10:49;10.38;;;2.60;;
65936;SDS011;52707;52.086;5.418;2023-07-13T14:13:17;4.65;;;2.13;;
65936;SDS011;52707;52.086;5.418;2023-07-13T14:15:45;6.60;;;2.53;;
65936;SDS011;52707;52.086;5.418;2023-07-13T14:18:12;9.95;;;2.85;;
65936;SDS011;52707;52.086;5.418;2023-07-13T14:20:44;6.20;;;2.00;;
65936;SDS011;52707;52.086;5.418;2023-07-13T14:23:15;10.95;;;2.88;;
65936;SDS011;52707;52.086;5.418;2023-07-13T14:25:42;11.52;;;2.70;;
65936;SDS011;52707;52.086;5.418;2023-07-13T14:28:15;12.32;;;2.72;;
65936;SDS011;52707;52.086;5.418;2023-07-13T14:30:43;6.60;;;2.80;;
65936;SDS011;52707;52.086;5.418;2023-07-13T14:33:10;8.65;;;2.30;;
65936;SDS011;52707;52.086;5.418;2023-07-13T14:35:37;9.13;;;2.72;;
65936;SDS011;52707;52.086;5.418;2023-07-13T14:38:04;8.05;;;2.75;;
65936;SDS011;52707;52.086;5.418;2023-07-13T14:40:31;17.80;;;2.08;;
65936;SDS011;52707;52.086;5.418;2023-07-13T14:42:58;4.63;;;2.20;;
65936;SDS011;52707;52.086;5.418;2023-07-13T14:45:25;5.53;;;2.30;;
65936;SDS011;52707;52.086;5.418;2023-07-13T14:47:51;6.72;;;2.28;;
65936;SDS011;52707;52.086;5.418;2023-07-13T14:50:19;10.18;;;2.78;;
65936;SDS011;52707;52.086;5.418;2023-07-13T14:52:47;19.17;;;2.63;;
65936;SDS011;52707;52.086;5.418;2023-07-13T14:55:17;5.22;;;2.65;;
65936;SDS011;52707;52.086;5.418;2023-07-13T14:57:45;6.82;;;2.17;;
65936;SDS011;52707;52.086;5.418;2023-07-13T15:00:16;8.93;;;2.38;;
65936;SDS011;52707;52.086;5.418;2023-07-13T15:02:44;5.82;;;2.00;;
65936;SDS011;52707;52.086;5.418;2023-07-13T15:05:18;8.43;;;2.33;;
65936;SDS011;52707;52.086;5.418;2023-07-13T15:07:45;7.47;;;2.47;;
65936;SDS011;52707;52.086;5.418;2023-07-13T15:10:13;8.30;;;2.38;;
65936;SDS011;52707;52.086;5.418;2023-07-13T15:12:40;4.10;;;1.90;;
65936;SDS011;52707;52.086;5.418;2023-07-13T15:15:07;7.18;;;2.22;;
65936;SDS011;52707;52.086;5.418;2023-07-13T15:17:38;6.78;;;2.20;;
65936;SDS011;52707;52.086;5.418;2023-07-13T15:22:38;7.05;;;2.40;;
65936;SDS011;52707;52.086;5.418;2023-07-13T15:25:07;4.43;;;1.88;;
65936;SDS011;52707;52.086;5.418;2023-07-13T15:27:37;6.70;;;2.45;;
65936;SDS011;52707;52.086;5.418;2023-07-13T15:30:04;7.10;;;2.03;;